sensor_id;sensor_type;location;lat;lon;timestamp;temperature;humidity
5924;DHT22;2987;50.884;14.818;2023-05-10T00:00:15;10.30;99.90
5924;DHT22;2987;50.884;14.818;2023-05-10T00:02:42;10.40;99.90
5924;DHT22;2987;50.884;14.818;2023-05-10T00:05:09;10.50;99.90
5924;DHT22;2987;50.884;14.818;2023-05-10T00:07:35;10.60;99.90
5924;DHT22;2987;50.884;14.818;2023-05-10T00:10:01;10.60;99.90
5924;DHT22;2987;50.884;14.818;2023-05-10T00:12:27;10.70;99.90
5924;DHT22;2987;50.884;14.818;2023-05-10T00:14:52;10.80;99.90
5924;DHT22;2987;50.884;14.818;2023-05-10T00:17:18;10.70;99.90
5924;DHT22;2987;50.884;14.818;2023-05-10T00:19:44;10.90;99.90
5924;DHT22;2987;50.884;14.818;2023-05-10T00:22:10;11.30;99.90
5924;DHT22;2987;50.884;14.818;2023-05-10T00:24:36;11.20;99.90
5924;DHT22;2987;50.884;14.818;2023-05-10T00:27:02;10.90;99.90
5924;DHT22;2987;50.884;14.818;2023-05-10T00:29:29;10.80;99.90
5924;DHT22;2987;50.884;14.818;2023-05-10T00:31:55;10.60;99.90
5924;DHT22;2987;50.884;14.818;2023-05-10T00:34:22;10.70;99.90
5924;DHT22;2987;50.884;14.818;2023-05-10T00:36:48;10.70;99.90
5924;DHT22;2987;50.884;14.818;2023-05-10T00:39:14;10.80;99.90
5924;DHT22;2987;50.884;14.818;2023-05-10T00:41:40;10.80;99.90
5924;DHT22;2987;50.884;14.818;2023-05-10T00:44:06;11.00;99.90
5924;DHT22;2987;50.884;14.818;2023-05-10T00:46:32;10.80;99.90
5924;DHT22;2987;50.884;14.818;2023-05-10T00:48:59;11.20;99.90
5924;DHT22;2987;50.884;14.818;2023-05-10T00:51:25;10.70;99.90
5924;DHT22;2987;50.884;14.818;2023-05-10T00:53:51;10.70;99.90
5924;DHT22;2987;50.884;14.818;2023-05-10T00:56:18;10.70;99.90
5924;DHT22;2987;50.884;14.818;2023-05-10T00:58:46;10.60;99.90
5924;DHT22;2987;50.884;14.818;2023-05-10T01:01:12;10.60;99.90
5924;DHT22;2987;50.884;14.818;2023-05-10T01:03:39;10.50;99.90
5924;DHT22;2987;50.884;14.818;2023-05-10T01:06:06;10.60;99.90
5924;DHT22;2987;50.884;14.818;2023-05-10T01:08:32;10.60;99.90
5924;DHT22;2987;50.884;14.818;2023-05-10T01:10:58;10.50;99.90
5924;DHT22;2987;50.884;14.818;2023-05-10T01:13:42;10.50;99.90
5924;DHT22;2987;50.884;14.818;2023-05-10T01:16:09;10.80;99.90
5924;DHT22;2987;50.884;14.818;2023-05-10T01:18:38;10.60;99.90
5924;DHT22;2987;50.884;14.818;2023-05-10T01:32:35;10.60;99.90
5924;DHT22;2987;50.884;14.818;2023-05-10T01:37:50;10.40;99.90
5924;DHT22;2987;50.884;14.818;2023-05-10T01:40:25;10.40;99.90
5924;DHT22;2987;50.884;14.818;2023-05-10T01:42:54;10.30;99.90
5924;DHT22;2987;50.884;14.818;2023-05-10T01:45:31;10.40;99.90
5924;DHT22;2987;50.884;14.818;2023-05-10T01:48:06;10.30;99.90
5924;DHT22;2987;50.884;14.818;2023-05-10T01:50:35;10.30;99.90
5924;DHT22;2987;50.884;14.818;2023-05-10T01:53:02;10.30;99.90
5924;DHT22;2987;50.884;14.818;2023-05-10T01:55:34;10.30;99.90
5924;DHT22;2987;50.884;14.818;2023-05-10T01:58:14;10.10;99.90
5924;DHT22;2987;50.884;14.818;2023-05-10T02:00:44;10.30;99.90
5924;DHT22;2987;50.884;14.818;2023-05-10T02:03:12;10.30;99.90
5924;DHT22;2987;50.884;14.818;2023-05-10T02:05:40;10.40;99.90
5924;DHT22;2987;50.884;14.818;2023-05-10T02:08:08;10.40;99.90
5924;DHT22;2987;50.884;14.818;2023-05-10T02:10:36;10.40;99.90
5924;DHT22;2987;50.884;14.818;2023-05-10T02:13:04;10.30;99.90
5924;DHT22;2987;50.884;14.818;2023-05-10T02:15:32;10.20;99.90
5924;DHT22;2987;50.884;14.818;2023-05-10T02:18:00;10.20;99.90
5924;DHT22;2987;50.884;14.818;2023-05-10T02:20:27;10.40;99.90
5924;DHT22;2987;50.884;14.818;2023-05-10T02:22:55;10.20;99.90
5924;DHT22;2987;50.884;14.818;2023-05-10T02:25:23;10.40;99.90
5924;DHT22;2987;50.884;14.818;2023-05-10T02:27:52;10.20;99.90
5924;DHT22;2987;50.884;14.818;2023-05-10T02:30:20;10.30;99.90
5924;DHT22;2987;50.884;14.818;2023-05-10T02:32:50;10.30;99.90
5924;DHT22;2987;50.884;14.818;2023-05-10T02:35:17;10.10;99.90
5924;DHT22;2987;50.884;14.818;2023-05-10T02:37:45;10.20;99.90
5924;DHT22;2987;50.884;14.818;2023-05-10T02:40:13;10.00;99.90
5924;DHT22;2987;50.884;14.818;2023-05-10T02:42:42;10.00;99.90
5924;DHT22;2987;50.884;14.818;2023-05-10T02:47:38;9.90;99.90
5924;DHT22;2987;50.884;14.818;2023-05-10T02:50:05;10.00;99.90
5924;DHT22;2987;50.884;14.818;2023-05-10T02:52:46;9.90;99.90
5924;DHT22;2987;50.884;14.818;2023-05-10T02:55:15;9.80;99.90
5924;DHT22;2987;50.884;14.818;2023-05-10T02:57:53;10.00;99.90
5924;DHT22;2987;50.884;14.818;2023-05-10T03:00:21;9.80;99.90
5924;DHT22;2987;50.884;14.818;2023-05-10T03:02:47;10.00;99.90
5924;DHT22;2987;50.884;14.818;2023-05-10T03:05:13;9.90;99.90
5924;DHT22;2987;50.884;14.818;2023-05-10T03:07:39;9.90;99.90
5924;DHT22;2987;50.884;14.818;2023-05-10T03:10:06;9.90;99.90
5924;DHT22;2987;50.884;14.818;2023-05-10T03:21:28;9.80;99.90
5924;DHT22;2987;50.884;14.818;2023-05-10T03:26:34;9.70;99.90
5924;DHT22;2987;50.884;14.818;2023-05-10T03:29:07;9.50;99.90
5924;DHT22;2987;50.884;14.818;2023-05-10T03:31:34;9.50;99.90
5924;DHT22;2987;50.884;14.818;2023-05-10T03:34:00;9.60;99.90
5924;DHT22;2987;50.884;14.818;2023-05-10T03:38:54;9.60;99.90
5924;DHT22;2987;50.884;14.818;2023-05-10T03:41:20;9.50;99.90
5924;DHT22;2987;50.884;14.818;2023-05-10T03:43:47;9.50;99.90
5924;DHT22;2987;50.884;14.818;2023-05-10T03:46:13;9.50;99.90
5924;DHT22;2987;50.884;14.818;2023-05-10T03:48:39;9.60;99.90
5924;DHT22;2987;50.884;14.818;2023-05-10T03:51:05;9.60;99.90
5924;DHT22;2987;50.884;14.818;2023-05-10T03:53:31;9.90;99.90
5924;DHT22;2987;50.884;14.818;2023-05-10T03:55:57;9.90;99.90
5924;DHT22;2987;50.884;14.818;2023-05-10T03:58:23;9.70;99.90
5924;DHT22;2987;50.884;14.818;2023-05-10T04:00:50;9.90;99.90
5924;DHT22;2987;50.884;14.818;2023-05-10T04:03:16;9.90;99.90
5924;DHT22;2987;50.884;14.818;2023-05-10T04:05:42;9.70;99.90
5924;DHT22;2987;50.884;14.818;2023-05-10T04:08:08;9.70;99.90
5924;DHT22;2987;50.884;14.818;2023-05-10T04:10:34;9.70;99.90
5924;DHT22;2987;50.884;14.818;2023-05-10T04:13:00;9.90;99.90
5924;DHT22;2987;50.884;14.818;2023-05-10T04:15:26;9.90;99.90
5924;DHT22;2987;50.884;14.818;2023-05-10T04:17:52;9.90;99.90
5924;DHT22;2987;50.884;14.818;2023-05-10T04:20:19;9.90;99.90
5924;DHT22;2987;50.884;14.818;2023-05-10T04:22:45;10.00;99.90
5924;DHT22;2987;50.884;14.818;2023-05-10T04:25:11;10.00;99.90
5924;DHT22;2987;50.884;14.818;2023-05-10T04:30:03;10.30;99.90
5924;DHT22;2987;50.884;14.818;2023-05-10T04:32:30;10.30;99.90
5924;DHT22;2987;50.884;14.818;2023-05-10T04:34:57;10.20;99.90
5924;DHT22;2987;50.884;14.818;2023-05-10T04:37:22;10.80;99.90
5924;DHT22;2987;50.884;14.818;2023-05-10T04:39:48;10.60;99.90
5924;DHT22;2987;50.884;14.818;2023-05-10T04:42:14;10.80;99.90
5924;DHT22;2987;50.884;14.818;2023-05-10T04:44:41;10.70;99.90
5924;DHT22;2987;50.884;14.818;2023-05-10T04:47:07;11.20;99.90
5924;DHT22;2987;50.884;14.818;2023-05-10T04:49:32;11.60;99.90
5924;DHT22;2987;50.884;14.818;2023-05-10T04:51:58;12.00;99.90
5924;DHT22;2987;50.884;14.818;2023-05-10T04:54:24;12.20;99.90
5924;DHT22;2987;50.884;14.818;2023-05-10T04:56:50;12.40;99.90
5924;DHT22;2987;50.884;14.818;2023-05-10T04:59:16;12.50;99.90
5924;DHT22;2987;50.884;14.818;2023-05-10T05:01:42;12.80;99.90
5924;DHT22;2987;50.884;14.818;2023-05-10T05:04:08;13.10;99.90
5924;DHT22;2987;50.884;14.818;2023-05-10T05:06:34;13.30;99.90
5924;DHT22;2987;50.884;14.818;2023-05-10T05:09:00;13.50;99.90
5924;DHT22;2987;50.884;14.818;2023-05-10T05:11:26;13.70;99.90
5924;DHT22;2987;50.884;14.818;2023-05-10T05:13:52;14.00;99.90
5924;DHT22;2987;50.884;14.818;2023-05-10T05:16:18;14.10;99.90
5924;DHT22;2987;50.884;14.818;2023-05-10T05:18:44;14.10;99.90
5924;DHT22;2987;50.884;14.818;2023-05-10T05:21:18;14.20;99.90
5924;DHT22;2987;50.884;14.818;2023-05-10T05:23:44;14.40;99.90
5924;DHT22;2987;50.884;14.818;2023-05-10T05:26:11;14.40;99.90
5924;DHT22;2987;50.884;14.818;2023-05-10T05:28:37;14.40;99.90
5924;DHT22;2987;50.884;14.818;2023-05-10T05:33:30;14.70;99.90
5924;DHT22;2987;50.884;14.818;2023-05-10T05:35:56;14.90;99.90
5924;DHT22;2987;50.884;14.818;2023-05-10T05:38:22;15.10;99.90
5924;DHT22;2987;50.884;14.818;2023-05-10T05:43:15;15.20;99.90
5924;DHT22;2987;50.884;14.818;2023-05-10T05:45:41;15.20;99.90
5924;DHT22;2987;50.884;14.818;2023-05-10T05:48:07;15.20;99.90
5924;DHT22;2987;50.884;14.818;2023-05-10T05:50:33;15.10;99.90
5924;DHT22;2987;50.884;14.818;2023-05-10T05:52:58;15.20;99.90
5924;DHT22;2987;50.884;14.818;2023-05-10T05:55:24;15.30;99.90
5924;DHT22;2987;50.884;14.818;2023-05-10T05:57:51;15.40;99.90
5924;DHT22;2987;50.884;14.818;2023-05-10T06:00:17;15.50;99.90
5924;DHT22;2987;50.884;14.818;2023-05-10T06:02:44;15.60;99.90
5924;DHT22;2987;50.884;14.818;2023-05-10T06:05:10;15.90;99.90
5924;DHT22;2987;50.884;14.818;2023-05-10T06:07:36;16.10;99.90
5924;DHT22;2987;50.884;14.818;2023-05-10T06:10:02;16.10;99.90
5924;DHT22;2987;50.884;14.818;2023-05-10T06:12:29;16.30;99.90
5924;DHT22;2987;50.884;14.818;2023-05-10T06:14:55;16.60;99.90
5924;DHT22;2987;50.884;14.818;2023-05-10T06:17:21;16.80;99.90
5924;DHT22;2987;50.884;14.818;2023-05-10T06:19:47;17.00;99.90
5924;DHT22;2987;50.884;14.818;2023-05-10T06:22:13;17.00;99.90
5924;DHT22;2987;50.884;14.818;2023-05-10T06:24:40;16.80;99.90
5924;DHT22;2987;50.884;14.818;2023-05-10T06:27:06;17.10;99.90
5924;DHT22;2987;50.884;14.818;2023-05-10T06:29:32;17.20;99.90
5924;DHT22;2987;50.884;14.818;2023-05-10T06:31:58;17.30;99.90
5924;DHT22;2987;50.884;14.818;2023-05-10T06:34:24;17.40;99.90
5924;DHT22;2987;50.884;14.818;2023-05-10T06:36:50;17.70;99.90
5924;DHT22;2987;50.884;14.818;2023-05-10T06:39:17;17.80;99.90
5924;DHT22;2987;50.884;14.818;2023-05-10T06:41:43;18.00;99.90
5924;DHT22;2987;50.884;14.818;2023-05-10T06:44:09;18.10;99.90
5924;DHT22;2987;50.884;14.818;2023-05-10T06:46:35;18.40;99.90
5924;DHT22;2987;50.884;14.818;2023-05-10T06:49:01;18.40;99.90
5924;DHT22;2987;50.884;14.818;2023-05-10T06:51:27;18.30;99.90
5924;DHT22;2987;50.884;14.818;2023-05-10T06:53:54;18.20;99.90
5924;DHT22;2987;50.884;14.818;2023-05-10T06:56:20;18.20;99.90
5924;DHT22;2987;50.884;14.818;2023-05-10T06:58:50;18.20;99.90
5924;DHT22;2987;50.884;14.818;2023-05-10T07:01:16;18.20;99.90
5924;DHT22;2987;50.884;14.818;2023-05-10T07:03:42;18.20;99.90
5924;DHT22;2987;50.884;14.818;2023-05-10T07:06:08;18.10;99.90
5924;DHT22;2987;50.884;14.818;2023-05-10T07:08:34;18.10;99.90
5924;DHT22;2987;50.884;14.818;2023-05-10T07:11:04;18.30;99.90
5924;DHT22;2987;50.884;14.818;2023-05-10T07:13:33;18.50;99.90
5924;DHT22;2987;50.884;14.818;2023-05-10T07:16:00;18.50;99.90
5924;DHT22;2987;50.884;14.818;2023-05-10T07:18:28;18.60;99.90
5924;DHT22;2987;50.884;14.818;2023-05-10T07:20:54;18.70;99.90
5924;DHT22;2987;50.884;14.818;2023-05-10T07:23:20;19.20;99.90
5924;DHT22;2987;50.884;14.818;2023-05-10T07:25:48;19.50;99.90
5924;DHT22;2987;50.884;14.818;2023-05-10T07:28:17;19.60;99.90
5924;DHT22;2987;50.884;14.818;2023-05-10T07:30:43;19.60;99.50
5924;DHT22;2987;50.884;14.818;2023-05-10T07:33:12;19.50;99.90
5924;DHT22;2987;50.884;14.818;2023-05-10T07:35:39;19.60;99.90
5924;DHT22;2987;50.884;14.818;2023-05-10T07:38:05;19.60;99.20
5924;DHT22;2987;50.884;14.818;2023-05-10T07:40:32;19.50;99.40
5924;DHT22;2987;50.884;14.818;2023-05-10T07:42:58;19.50;99.90
5924;DHT22;2987;50.884;14.818;2023-05-10T07:45:26;19.60;98.80
5924;DHT22;2987;50.884;14.818;2023-05-10T07:47:52;19.30;98.50
5924;DHT22;2987;50.884;14.818;2023-05-10T07:50:18;19.20;98.30
5924;DHT22;2987;50.884;14.818;2023-05-10T07:52:44;19.00;99.60
5924;DHT22;2987;50.884;14.818;2023-05-10T07:55:10;19.00;99.10
5924;DHT22;2987;50.884;14.818;2023-05-10T07:57:37;19.20;99.90
5924;DHT22;2987;50.884;14.818;2023-05-10T08:00:03;19.30;99.60
5924;DHT22;2987;50.884;14.818;2023-05-10T08:02:39;19.40;98.30
5924;DHT22;2987;50.884;14.818;2023-05-10T08:05:06;19.40;98.80
5924;DHT22;2987;50.884;14.818;2023-05-10T08:07:32;19.50;99.90
5924;DHT22;2987;50.884;14.818;2023-05-10T08:09:59;19.60;99.90
5924;DHT22;2987;50.884;14.818;2023-05-10T08:12:25;19.60;99.40
5924;DHT22;2987;50.884;14.818;2023-05-10T08:14:51;19.80;99.80
5924;DHT22;2987;50.884;14.818;2023-05-10T08:17:17;19.90;99.30
5924;DHT22;2987;50.884;14.818;2023-05-10T08:19:43;19.90;98.90
5924;DHT22;2987;50.884;14.818;2023-05-10T08:22:09;20.10;99.50
5924;DHT22;2987;50.884;14.818;2023-05-10T08:24:35;20.20;98.00
5924;DHT22;2987;50.884;14.818;2023-05-10T08:27:05;20.40;98.90
5924;DHT22;2987;50.884;14.818;2023-05-10T08:29:31;20.40;97.50
5924;DHT22;2987;50.884;14.818;2023-05-10T08:31:57;20.40;97.10
5924;DHT22;2987;50.884;14.818;2023-05-10T08:34:23;20.40;99.10
5924;DHT22;2987;50.884;14.818;2023-05-10T08:36:49;20.60;98.30
5924;DHT22;2987;50.884;14.818;2023-05-10T08:39:15;20.80;97.50
5924;DHT22;2987;50.884;14.818;2023-05-10T08:41:44;20.70;96.10
5924;DHT22;2987;50.884;14.818;2023-05-10T08:44:10;20.60;97.00
5924;DHT22;2987;50.884;14.818;2023-05-10T08:46:37;20.50;98.30
5924;DHT22;2987;50.884;14.818;2023-05-10T08:49:07;20.40;97.10
5924;DHT22;2987;50.884;14.818;2023-05-10T08:51:36;20.60;95.40
5924;DHT22;2987;50.884;14.818;2023-05-10T08:54:06;20.60;97.40
5924;DHT22;2987;50.884;14.818;2023-05-10T08:56:32;20.60;96.00
5924;DHT22;2987;50.884;14.818;2023-05-10T08:58:59;20.60;97.10
5924;DHT22;2987;50.884;14.818;2023-05-10T09:01:25;20.70;97.80
5924;DHT22;2987;50.884;14.818;2023-05-10T09:03:52;20.90;97.80
5924;DHT22;2987;50.884;14.818;2023-05-10T09:06:18;21.10;97.00
5924;DHT22;2987;50.884;14.818;2023-05-10T09:08:45;21.00;96.10
5924;DHT22;2987;50.884;14.818;2023-05-10T09:11:12;21.00;97.60
5924;DHT22;2987;50.884;14.818;2023-05-10T09:13:39;21.00;95.30
5924;DHT22;2987;50.884;14.818;2023-05-10T09:16:05;20.90;97.60
5924;DHT22;2987;50.884;14.818;2023-05-10T09:18:31;21.00;96.60
5924;DHT22;2987;50.884;14.818;2023-05-10T09:20:57;21.00;97.40
5924;DHT22;2987;50.884;14.818;2023-05-10T09:23:23;21.30;98.40
5924;DHT22;2987;50.884;14.818;2023-05-10T09:26:09;21.40;94.80
5924;DHT22;2987;50.884;14.818;2023-05-10T09:28:54;21.40;94.00
5924;DHT22;2987;50.884;14.818;2023-05-10T09:31:22;21.10;95.60
5924;DHT22;2987;50.884;14.818;2023-05-10T09:33:50;21.10;95.10
5924;DHT22;2987;50.884;14.818;2023-05-10T09:36:17;20.90;95.50
5924;DHT22;2987;50.884;14.818;2023-05-10T09:38:51;21.00;96.20
5924;DHT22;2987;50.884;14.818;2023-05-10T09:41:19;21.00;94.50
5924;DHT22;2987;50.884;14.818;2023-05-10T09:43:46;21.10;93.70
5924;DHT22;2987;50.884;14.818;2023-05-10T09:46:12;21.20;94.10
5924;DHT22;2987;50.884;14.818;2023-05-10T09:48:47;21.30;96.60
5924;DHT22;2987;50.884;14.818;2023-05-10T09:51:29;21.50;94.40
5924;DHT22;2987;50.884;14.818;2023-05-10T09:54:12;21.70;96.40
5924;DHT22;2987;50.884;14.818;2023-05-10T09:56:39;22.00;96.30
5924;DHT22;2987;50.884;14.818;2023-05-10T09:59:10;22.20;95.80
5924;DHT22;2987;50.884;14.818;2023-05-10T10:01:37;22.40;94.40
5924;DHT22;2987;50.884;14.818;2023-05-10T10:04:05;22.30;94.10
5924;DHT22;2987;50.884;14.818;2023-05-10T10:06:36;22.30;94.90
5924;DHT22;2987;50.884;14.818;2023-05-10T10:09:04;22.30;94.30
5924;DHT22;2987;50.884;14.818;2023-05-10T10:11:31;22.20;94.70
5924;DHT22;2987;50.884;14.818;2023-05-10T10:13:58;22.20;94.60
5924;DHT22;2987;50.884;14.818;2023-05-10T10:16:24;22.20;93.20
5924;DHT22;2987;50.884;14.818;2023-05-10T10:18:51;22.00;92.90
5924;DHT22;2987;50.884;14.818;2023-05-10T10:21:18;22.00;94.40
5924;DHT22;2987;50.884;14.818;2023-05-10T10:23:46;22.10;92.50
5924;DHT22;2987;50.884;14.818;2023-05-10T10:26:12;22.10;92.90
5924;DHT22;2987;50.884;14.818;2023-05-10T10:28:56;22.10;94.70
5924;DHT22;2987;50.884;14.818;2023-05-10T10:31:38;22.10;92.40
5924;DHT22;2987;50.884;14.818;2023-05-10T10:34:08;21.80;94.90
5924;DHT22;2987;50.884;14.818;2023-05-10T10:36:45;21.90;94.40
5924;DHT22;2987;50.884;14.818;2023-05-10T10:39:14;22.00;95.20
5924;DHT22;2987;50.884;14.818;2023-05-10T10:41:51;22.10;94.90
5924;DHT22;2987;50.884;14.818;2023-05-10T10:44:34;22.40;94.70
5924;DHT22;2987;50.884;14.818;2023-05-10T10:47:03;22.60;94.30
5924;DHT22;2987;50.884;14.818;2023-05-10T10:49:43;22.60;93.10
5924;DHT22;2987;50.884;14.818;2023-05-10T10:52:38;22.80;93.30
5924;DHT22;2987;50.884;14.818;2023-05-10T10:57:49;23.10;93.00
5924;DHT22;2987;50.884;14.818;2023-05-10T11:00:20;23.20;92.10
5924;DHT22;2987;50.884;14.818;2023-05-10T11:02:51;23.40;91.70
5924;DHT22;2987;50.884;14.818;2023-05-10T11:05:38;23.20;91.80
5924;DHT22;2987;50.884;14.818;2023-05-10T11:08:26;23.10;93.30
5924;DHT22;2987;50.884;14.818;2023-05-10T11:11:02;23.00;92.10
5924;DHT22;2987;50.884;14.818;2023-05-10T11:13:37;22.90;91.90
5924;DHT22;2987;50.884;14.818;2023-05-10T11:18:40;22.90;91.90
5924;DHT22;2987;50.884;14.818;2023-05-10T11:21:08;22.90;91.30
5924;DHT22;2987;50.884;14.818;2023-05-10T11:23:51;23.10;91.50
5924;DHT22;2987;50.884;14.818;2023-05-10T11:26:18;23.20;91.40
5924;DHT22;2987;50.884;14.818;2023-05-10T11:31:14;23.40;91.40
5924;DHT22;2987;50.884;14.818;2023-05-10T11:33:45;23.20;90.70
5924;DHT22;2987;50.884;14.818;2023-05-10T11:36:15;23.40;90.00
5924;DHT22;2987;50.884;14.818;2023-05-10T11:38:41;23.40;86.70
5924;DHT22;2987;50.884;14.818;2023-05-10T11:41:08;23.30;91.00
5924;DHT22;2987;50.884;14.818;2023-05-10T11:43:36;23.30;90.30
5924;DHT22;2987;50.884;14.818;2023-05-10T11:46:06;23.40;91.10
5924;DHT22;2987;50.884;14.818;2023-05-10T11:48:32;23.70;93.00
5924;DHT22;2987;50.884;14.818;2023-05-10T11:50:58;23.90;88.60
5924;DHT22;2987;50.884;14.818;2023-05-10T11:53:26;23.90;89.90
5924;DHT22;2987;50.884;14.818;2023-05-10T11:55:53;23.80;85.00
5924;DHT22;2987;50.884;14.818;2023-05-10T11:58:19;23.80;88.60
5924;DHT22;2987;50.884;14.818;2023-05-10T12:00:47;23.90;90.40
5924;DHT22;2987;50.884;14.818;2023-05-10T12:03:13;23.90;87.40
5924;DHT22;2987;50.884;14.818;2023-05-10T12:05:39;24.00;87.30
5924;DHT22;2987;50.884;14.818;2023-05-10T12:08:11;24.00;87.20
5924;DHT22;2987;50.884;14.818;2023-05-10T12:10:37;23.90;87.80
5924;DHT22;2987;50.884;14.818;2023-05-10T12:13:03;24.10;88.80
5924;DHT22;2987;50.884;14.818;2023-05-10T12:15:29;24.20;90.50
5924;DHT22;2987;50.884;14.818;2023-05-10T12:17:57;24.40;87.60
5924;DHT22;2987;50.884;14.818;2023-05-10T12:20:24;24.40;90.10
5924;DHT22;2987;50.884;14.818;2023-05-10T12:22:51;24.40;89.80
5924;DHT22;2987;50.884;14.818;2023-05-10T12:25:21;24.20;87.60
5924;DHT22;2987;50.884;14.818;2023-05-10T12:27:50;24.10;88.20
5924;DHT22;2987;50.884;14.818;2023-05-10T12:30:27;24.10;89.90
5924;DHT22;2987;50.884;14.818;2023-05-10T12:33:01;24.20;89.80
5924;DHT22;2987;50.884;14.818;2023-05-10T12:35:30;23.90;86.80
5924;DHT22;2987;50.884;14.818;2023-05-10T12:37:57;23.90;87.70
5924;DHT22;2987;50.884;14.818;2023-05-10T12:40:23;23.90;89.30
5924;DHT22;2987;50.884;14.818;2023-05-10T12:42:49;24.00;88.10
5924;DHT22;2987;50.884;14.818;2023-05-10T12:45:15;24.00;88.50
5924;DHT22;2987;50.884;14.818;2023-05-10T12:47:43;24.20;83.80
5924;DHT22;2987;50.884;14.818;2023-05-10T12:52:35;24.20;86.40
5924;DHT22;2987;50.884;14.818;2023-05-10T12:55:01;24.30;82.30
5924;DHT22;2987;50.884;14.818;2023-05-10T12:57:28;24.30;83.40
5924;DHT22;2987;50.884;14.818;2023-05-10T12:59:55;24.20;85.00
5924;DHT22;2987;50.884;14.818;2023-05-10T13:02:21;24.00;86.30
5924;DHT22;2987;50.884;14.818;2023-05-10T13:04:49;24.00;84.60
5924;DHT22;2987;50.884;14.818;2023-05-10T13:07:15;23.90;88.60
5924;DHT22;2987;50.884;14.818;2023-05-10T13:09:41;23.90;85.90
5924;DHT22;2987;50.884;14.818;2023-05-10T13:12:07;23.70;87.20
5924;DHT22;2987;50.884;14.818;2023-05-10T13:14:34;23.70;85.50
5924;DHT22;2987;50.884;14.818;2023-05-10T13:17:00;23.50;88.20
5924;DHT22;2987;50.884;14.818;2023-05-10T13:19:26;23.70;87.40
5924;DHT22;2987;50.884;14.818;2023-05-10T13:21:52;24.00;83.90
5924;DHT22;2987;50.884;14.818;2023-05-10T13:24:18;24.10;82.50
5924;DHT22;2987;50.884;14.818;2023-05-10T13:26:44;23.90;84.70
5924;DHT22;2987;50.884;14.818;2023-05-10T13:29:10;23.90;83.70
5924;DHT22;2987;50.884;14.818;2023-05-10T13:31:36;24.10;88.00
5924;DHT22;2987;50.884;14.818;2023-05-10T13:34:03;24.10;85.80
5924;DHT22;2987;50.884;14.818;2023-05-10T13:36:29;23.90;85.20
5924;DHT22;2987;50.884;14.818;2023-05-10T13:38:56;23.40;82.80
5924;DHT22;2987;50.884;14.818;2023-05-10T13:43:47;23.20;87.00
5924;DHT22;2987;50.884;14.818;2023-05-10T13:46:14;23.30;86.90
5924;DHT22;2987;50.884;14.818;2023-05-10T13:48:40;23.30;87.40
5924;DHT22;2987;50.884;14.818;2023-05-10T13:51:06;23.40;90.10
5924;DHT22;2987;50.884;14.818;2023-05-10T13:53:34;23.40;88.40
5924;DHT22;2987;50.884;14.818;2023-05-10T13:56:00;23.40;85.50
5924;DHT22;2987;50.884;14.818;2023-05-10T13:58:26;23.20;88.50
5924;DHT22;2987;50.884;14.818;2023-05-10T14:00:52;23.10;90.40
5924;DHT22;2987;50.884;14.818;2023-05-10T14:03:18;23.00;90.20
5924;DHT22;2987;50.884;14.818;2023-05-10T14:05:44;22.90;90.10
5924;DHT22;2987;50.884;14.818;2023-05-10T14:08:11;22.90;90.30
5924;DHT22;2987;50.884;14.818;2023-05-10T14:10:39;22.70;90.40
5924;DHT22;2987;50.884;14.818;2023-05-10T14:13:05;22.60;91.70
5924;DHT22;2987;50.884;14.818;2023-05-10T14:15:32;22.60;91.80
5924;DHT22;2987;50.884;14.818;2023-05-10T14:17:57;22.60;92.20
5924;DHT22;2987;50.884;14.818;2023-05-10T14:20:24;22.60;91.70
5924;DHT22;2987;50.884;14.818;2023-05-10T14:22:50;22.20;91.50
5924;DHT22;2987;50.884;14.818;2023-05-10T14:25:16;22.10;91.30
5924;DHT22;2987;50.884;14.818;2023-05-10T14:27:41;22.10;92.30
5924;DHT22;2987;50.884;14.818;2023-05-10T14:30:08;22.10;92.00
5924;DHT22;2987;50.884;14.818;2023-05-10T14:32:34;22.20;87.70
5924;DHT22;2987;50.884;14.818;2023-05-10T14:35:02;22.20;87.80
5924;DHT22;2987;50.884;14.818;2023-05-10T14:37:28;22.10;91.30
5924;DHT22;2987;50.884;14.818;2023-05-10T14:39:54;22.00;91.60
5924;DHT22;2987;50.884;14.818;2023-05-10T14:42:20;21.90;91.20
5924;DHT22;2987;50.884;14.818;2023-05-10T14:44:46;21.90;91.10
5924;DHT22;2987;50.884;14.818;2023-05-10T14:47:12;22.00;90.90
5924;DHT22;2987;50.884;14.818;2023-05-10T14:49:38;22.00;91.00
5924;DHT22;2987;50.884;14.818;2023-05-10T14:52:05;21.80;89.80
5924;DHT22;2987;50.884;14.818;2023-05-10T14:54:30;21.70;88.10
5924;DHT22;2987;50.884;14.818;2023-05-10T14:56:59;21.60;89.90
5924;DHT22;2987;50.884;14.818;2023-05-10T14:59:25;21.50;89.80
5924;DHT22;2987;50.884;14.818;2023-05-10T15:01:51;21.40;89.40
5924;DHT22;2987;50.884;14.818;2023-05-10T15:04:17;21.30;90.70
5924;DHT22;2987;50.884;14.818;2023-05-10T15:06:43;21.30;90.50
5924;DHT22;2987;50.884;14.818;2023-05-10T15:09:09;21.30;91.40
5924;DHT22;2987;50.884;14.818;2023-05-10T15:11:36;21.20;91.00
5924;DHT22;2987;50.884;14.818;2023-05-10T15:14:03;21.10;91.80
5924;DHT22;2987;50.884;14.818;2023-05-10T15:16:29;21.10;92.00
5924;DHT22;2987;50.884;14.818;2023-05-10T15:18:55;21.10;91.90
5924;DHT22;2987;50.884;14.818;2023-05-10T15:21:21;21.10;93.30
5924;DHT22;2987;50.884;14.818;2023-05-10T15:23:47;21.10;92.50
5924;DHT22;2987;50.884;14.818;2023-05-10T15:26:13;21.20;90.80
5924;DHT22;2987;50.884;14.818;2023-05-10T15:28:39;21.20;91.10
5924;DHT22;2987;50.884;14.818;2023-05-10T15:31:05;21.10;91.50
5924;DHT22;2987;50.884;14.818;2023-05-10T15:33:31;21.00;92.10
5924;DHT22;2987;50.884;14.818;2023-05-10T15:35:58;21.10;91.00
5924;DHT22;2987;50.884;14.818;2023-05-10T15:38:24;21.10;92.40
5924;DHT22;2987;50.884;14.818;2023-05-10T15:40:50;21.10;91.20
5924;DHT22;2987;50.884;14.818;2023-05-10T15:43:16;21.10;92.20
5924;DHT22;2987;50.884;14.818;2023-05-10T15:45:41;21.00;94.30
5924;DHT22;2987;50.884;14.818;2023-05-10T15:48:07;20.90;92.40
5924;DHT22;2987;50.884;14.818;2023-05-10T15:52:59;20.70;93.20
5924;DHT22;2987;50.884;14.818;2023-05-10T15:55:25;20.60;92.40
5924;DHT22;2987;50.884;14.818;2023-05-10T15:57:51;20.40;93.40
5924;DHT22;2987;50.884;14.818;2023-05-10T16:00:17;20.30;93.50
5924;DHT22;2987;50.884;14.818;2023-05-10T16:02:43;20.30;93.50
5924;DHT22;2987;50.884;14.818;2023-05-10T16:05:09;20.20;94.10
5924;DHT22;2987;50.884;14.818;2023-05-10T16:07:35;20.20;93.90
5924;DHT22;2987;50.884;14.818;2023-05-10T16:10:01;20.20;93.50
5924;DHT22;2987;50.884;14.818;2023-05-10T16:12:29;20.10;93.20
5924;DHT22;2987;50.884;14.818;2023-05-10T16:14:56;19.90;93.50
5924;DHT22;2987;50.884;14.818;2023-05-10T16:17:22;19.90;95.50
5924;DHT22;2987;50.884;14.818;2023-05-10T16:19:48;19.80;94.60
5924;DHT22;2987;50.884;14.818;2023-05-10T16:22:13;19.70;93.90
5924;DHT22;2987;50.884;14.818;2023-05-10T16:24:39;19.60;93.60
5924;DHT22;2987;50.884;14.818;2023-05-10T16:27:07;19.60;94.20
5924;DHT22;2987;50.884;14.818;2023-05-10T16:29:33;19.50;94.30
5924;DHT22;2987;50.884;14.818;2023-05-10T16:31:59;19.40;95.00
5924;DHT22;2987;50.884;14.818;2023-05-10T16:34:25;19.30;94.20
5924;DHT22;2987;50.884;14.818;2023-05-10T16:36:51;19.20;94.00
5924;DHT22;2987;50.884;14.818;2023-05-10T16:39:17;19.10;95.60
5924;DHT22;2987;50.884;14.818;2023-05-10T16:41:42;19.00;95.20